createdAt,value
2019-02-20T00:02:03.292Z,5.30
2019-02-20T00:04:31.921Z,5.53
2019-02-20T00:07:00.551Z,5.45
2019-02-20T00:09:29.208Z,5.05
2019-02-20T00:11:57.881Z,6.00
2019-02-20T00:14:26.486Z,5.85
2019-02-20T00:16:55.102Z,5.65
2019-02-20T00:19:23.748Z,6.10
2019-02-20T00:21:52.395Z,5.30
2019-02-20T00:24:21.030Z,5.55
2019-02-20T00:26:49.762Z,5.12
2019-02-20T00:29:18.374Z,4.95
2019-02-20T00:31:46.983Z,5.53
2019-02-20T00:34:15.605Z,5.08
2019-02-20T00:36:44.232Z,5.10
2019-02-20T00:39:12.862Z,5.05
2019-02-20T00:41:41.512Z,5.95
2019-02-20T00:44:29.117Z,5.35
2019-02-20T00:47:16.771Z,6.20
2019-02-20T00:49:47.992Z,6.33
2019-02-20T00:54:58.407Z,5.60
2019-02-20T00:57:27.090Z,5.75
2019-02-20T00:59:55.706Z,5.70
2019-02-20T01:02:24.345Z,6.58
2019-02-20T01:04:53.066Z,6.35
2019-02-20T01:07:21.671Z,7.40
2019-02-20T01:09:50.285Z,5.85
2019-02-20T01:12:18.978Z,6.15
2019-02-20T01:14:47.572Z,5.80
2019-02-20T01:17:16.211Z,5.50
2019-02-20T01:19:44.899Z,5.20
2019-02-20T01:22:13.512Z,5.30
2019-02-20T01:24:42.149Z,4.85
2019-02-20T01:27:10.783Z,5.58
2019-02-20T01:29:39.411Z,5.25
2019-02-20T01:32:08.030Z,5.22
2019-02-20T01:34:36.655Z,5.20
2019-02-20T01:37:05.259Z,5.70
2019-02-20T01:39:33.994Z,4.87
2019-02-20T01:42:02.619Z,5.17
2019-02-20T01:44:31.267Z,4.67
2019-02-20T01:46:59.911Z,6.12
2019-02-20T01:49:28.529Z,5.40
2019-02-20T01:51:57.154Z,5.20
2019-02-20T01:54:25.872Z,5.12
2019-02-20T01:56:54.465Z,7.00
2019-02-20T01:59:23.108Z,6.22
2019-02-20T02:01:51.724Z,6.15
2019-02-20T02:04:20.369Z,5.50
2019-02-20T02:06:48.981Z,6.45
2019-02-20T02:09:17.624Z,6.35
2019-02-20T02:11:46.238Z,6.15
2019-02-20T02:14:14.868Z,6.05
2019-02-20T02:16:43.489Z,5.92
2019-02-20T02:19:12.114Z,7.03
2019-02-20T02:21:40.840Z,6.55
2019-02-20T02:24:09.448Z,7.10
2019-02-20T02:26:38.077Z,6.50
2019-02-20T02:29:06.883Z,6.60
2019-02-20T02:31:35.480Z,7.22
2019-02-20T02:34:04.105Z,7.15
2019-02-20T02:36:32.712Z,7.80
2019-02-20T02:39:01.329Z,7.05
2019-02-20T02:41:30.002Z,8.28
2019-02-20T02:43:58.619Z,8.35
2019-02-20T02:46:27.324Z,7.92
2019-02-20T02:48:56.041Z,7.60
2019-02-20T02:51:24.664Z,7.97
2019-02-20T02:53:53.294Z,7.15
2019-02-20T02:56:22.008Z,7.37
2019-02-20T02:58:50.730Z,7.70
2019-02-20T03:01:19.379Z,8.13
2019-02-20T03:03:48.001Z,8.20
2019-02-20T03:06:16.639Z,7.35
2019-02-20T03:08:45.265Z,7.30
2019-02-20T03:11:13.887Z,7.78
2019-02-20T03:13:42.613Z,8.78
2019-02-20T03:16:11.295Z,8.55
2019-02-20T03:18:39.911Z,8.50
2019-02-20T03:21:08.517Z,9.50
2019-02-20T03:23:40.185Z,9.60
2019-02-20T03:26:07.490Z,9.20
2019-02-20T03:28:36.130Z,9.65
2019-02-20T03:31:04.744Z,9.80
2019-02-20T03:33:33.360Z,10.10
2019-02-20T03:36:01.996Z,10.30
2019-02-20T03:38:30.793Z,9.35
2019-02-20T03:40:59.461Z,10.78
2019-02-20T03:43:28.086Z,9.55
2019-02-20T03:45:56.824Z,10.28
2019-02-20T03:48:25.479Z,10.13
2019-02-20T03:50:54.100Z,11.25
2019-02-20T03:53:22.721Z,10.93
2019-02-20T03:55:51.414Z,10.93
2019-02-20T03:58:20.119Z,11.25
2019-02-20T04:00:48.793Z,9.20
2019-02-20T04:03:17.418Z,9.15
2019-02-20T04:05:46.095Z,10.75
2019-02-20T04:08:14.723Z,10.10
2019-02-20T04:10:43.377Z,10.82
2019-02-20T04:13:11.975Z,10.00
2019-02-20T04:18:16.369Z,9.93
2019-02-20T04:20:45.043Z,10.45
2019-02-20T04:23:13.660Z,11.55
2019-02-20T04:25:42.300Z,11.35
2019-02-20T04:28:10.926Z,10.93
2019-02-20T04:30:39.558Z,10.63
2019-02-20T04:33:08.171Z,10.43
2019-02-20T04:35:36.817Z,11.63
2019-02-20T04:38:05.423Z,12.35
2019-02-20T04:40:34.064Z,11.68
2019-02-20T04:43:02.685Z,12.43
2019-02-20T04:45:31.319Z,12.95
2019-02-20T04:47:59.956Z,12.98
2019-02-20T04:50:28.603Z,14.20
2019-02-20T04:52:57.251Z,13.32
2019-02-20T04:55:25.898Z,13.88
2019-02-20T04:58:14.635Z,12.88
2019-02-20T05:00:43.275Z,20.37
2019-02-20T05:03:11.992Z,14.10
2019-02-20T05:05:40.709Z,14.43
2019-02-20T05:08:09.378Z,14.63
2019-02-20T05:10:37.979Z,14.28
2019-02-20T05:13:06.617Z,13.60
2019-02-20T05:15:35.258Z,13.65
2019-02-20T05:18:03.972Z,14.10
2019-02-20T05:20:32.690Z,13.15
2019-02-20T05:23:01.310Z,12.37
2019-02-20T05:25:29.939Z,13.13
2019-02-20T05:27:58.554Z,13.80
2019-02-20T05:30:27.227Z,12.95
2019-02-20T05:32:55.861Z,12.40
2019-02-20T05:35:24.474Z,12.95
2019-02-20T05:37:53.098Z,15.28
2019-02-20T05:40:21.715Z,14.55
2019-02-20T05:42:50.423Z,13.95
2019-02-20T05:45:19.062Z,13.22
2019-02-20T05:47:47.780Z,14.25
2019-02-20T05:50:16.381Z,13.83
2019-02-20T05:52:45.039Z,12.93
2019-02-20T05:55:13.744Z,12.80
2019-02-20T05:57:42.375Z,13.55
2019-02-20T06:00:11.541Z,15.08
2019-02-20T06:02:40.260Z,14.50
2019-02-20T06:05:09.031Z,13.93
2019-02-20T06:07:37.776Z,13.98
2019-02-20T06:10:07.193Z,14.15
2019-02-20T06:12:35.820Z,14.90
2019-02-20T06:15:04.766Z,14.95
2019-02-20T06:17:33.394Z,15.45
2019-02-20T06:20:02.032Z,14.60
2019-02-20T06:22:30.668Z,15.10
2019-02-20T06:24:59.313Z,14.98
2019-02-20T06:27:27.954Z,13.65
2019-02-20T06:29:56.585Z,16.30
2019-02-20T06:32:25.214Z,15.15
2019-02-20T06:34:53.850Z,15.45
2019-02-20T06:37:22.504Z,19.55
2019-02-20T06:39:51.241Z,18.65
2019-02-20T06:42:19.879Z,20.35
2019-02-20T06:44:48.521Z,20.60
2019-02-20T06:47:17.169Z,20.60
2019-02-20T06:49:46.142Z,20.15
2019-02-20T06:52:14.752Z,21.25
2019-02-20T06:54:43.527Z,20.20
2019-02-20T06:57:12.426Z,20.10
2019-02-20T06:59:41.132Z,19.48
2019-02-20T07:02:09.842Z,19.90
2019-02-20T07:04:38.477Z,21.30
2019-02-20T07:07:31.990Z,22.22
2019-02-20T07:10:39.134Z,20.43
2019-02-20T07:13:32.191Z,19.40
2019-02-20T07:16:25.656Z,17.50
2019-02-20T07:19:32.760Z,18.32
2019-02-20T07:22:24.726Z,17.25
2019-02-20T07:25:31.866Z,17.70
2019-02-20T07:28:38.963Z,18.05
2019-02-20T07:31:07.820Z,16.27
2019-02-20T07:33:36.429Z,18.35
2019-02-20T07:36:05.508Z,18.92
2019-02-20T07:38:34.173Z,19.10
2019-02-20T07:41:03.059Z,18.67
2019-02-20T07:43:31.675Z,18.02
2019-02-20T07:46:00.305Z,18.92
2019-02-20T07:48:28.956Z,18.12
2019-02-20T07:50:57.593Z,17.85
2019-02-20T07:53:26.217Z,17.00
2019-02-20T07:55:54.889Z,17.50
2019-02-20T07:58:23.955Z,20.20
2019-02-20T08:00:52.691Z,18.40
2019-02-20T08:03:21.312Z,19.75
2019-02-20T08:05:50.008Z,19.92
2019-02-20T18:38:26.862Z,5.28
2019-02-20T18:40:55.859Z,6.13
2019-02-20T18:43:24.871Z,5.67
2019-02-20T18:45:53.701Z,5.20
2019-02-20T18:48:22.482Z,4.08
2019-02-20T18:50:51.223Z,6.13
2019-02-20T18:53:20.348Z,5.35
2019-02-20T18:55:49.090Z,6.17
2019-02-20T18:58:19.012Z,5.40
2019-02-20T19:00:48.558Z,5.40
2019-02-20T19:03:18.049Z,6.00
2019-02-20T19:05:46.876Z,5.37
2019-02-20T19:08:56.841Z,5.60
2019-02-20T19:11:32.546Z,6.30
2019-02-20T19:14:23.312Z,5.70
2019-02-20T19:17:30.492Z,5.60
2019-02-20T19:20:37.634Z,6.20
2019-02-20T19:26:20.585Z,6.17
2019-02-20T19:29:27.889Z,48.68
2019-02-20T19:32:27.336Z,12.60
2019-02-20T19:35:34.487Z,16.25
2019-02-20T19:38:41.765Z,7.95
2019-02-20T19:41:33.208Z,7.00
2019-02-20T19:47:33.947Z,7.08
2019-02-20T19:53:38.053Z,6.70
2019-02-20T19:56:32.111Z,6.60
2019-02-20T19:59:24.893Z,6.97
2019-02-20T20:02:32.493Z,6.45
2019-02-20T20:05:39.678Z,5.47
2019-02-20T20:08:46.876Z,6.90
2019-02-20T20:11:54.166Z,6.78
2019-02-20T20:17:59.670Z,6.10
2019-02-20T20:21:06.919Z,5.92
2019-02-20T20:24:14.138Z,6.42
2019-02-20T20:27:14.748Z,6.30
2019-02-20T20:30:27.960Z,6.97
2019-02-20T20:33:35.210Z,6.67
2019-02-20T20:36:42.409Z,6.58
2019-02-20T20:42:52.035Z,7.70
2019-02-20T20:48:47.392Z,7.17
2019-02-20T20:51:54.511Z,6.75
2019-02-20T20:55:01.803Z,8.05
2019-02-20T20:57:54.827Z,7.45
2019-02-20T21:03:16.931Z,9.25
2019-02-20T21:06:24.140Z,8.58
2019-02-20T21:09:15.048Z,7.87
2019-02-20T21:21:45.401Z,7.30
2019-02-20T21:24:39.262Z,7.83
2019-02-20T21:27:32.876Z,7.55
2019-02-20T21:30:40.045Z,6.85
2019-02-20T21:36:15.619Z,6.05
2019-02-20T21:39:07.964Z,6.22
2019-02-20T21:42:15.075Z,6.10
2019-02-20T21:45:05.659Z,6.15
2019-02-20T21:48:12.829Z,6.15
2019-02-20T21:51:07.049Z,5.80
2019-02-20T21:54:06.659Z,5.87
2019-02-20T21:57:13.844Z,6.40
2019-02-20T22:00:06.327Z,6.45
2019-02-20T22:03:13.454Z,6.62
2019-02-20T22:06:04.441Z,6.80
2019-02-20T22:08:57.991Z,6.83
2019-02-20T22:11:49.438Z,7.30
2019-02-20T22:14:56.596Z,5.78
2019-02-20T22:18:03.799Z,6.87
2019-02-20T22:20:59.720Z,5.83
2019-02-20T22:23:53.403Z,5.33
2019-02-20T22:26:47.300Z,5.75
2019-02-20T22:29:54.566Z,7.17
2019-02-20T22:35:53.337Z,5.95
2019-02-20T22:38:48.272Z,6.62
2019-02-20T22:41:55.478Z,7.05
2019-02-20T22:44:54.417Z,7.80
2019-02-20T22:47:47.148Z,7.42
2019-02-20T22:50:54.269Z,8.15
2019-02-20T22:54:01.369Z,7.03
2019-02-20T22:57:08.521Z,8.20
2019-02-20T23:00:02.654Z,6.85
2019-02-20T23:03:10.731Z,7.45
2019-02-20T23:06:05.204Z,6.97
2019-02-20T23:09:12.327Z,7.65
2019-02-20T23:12:19.449Z,9.73
2019-02-20T23:15:07.292Z,8.90
2019-02-20T23:17:35.924Z,8.35
2019-02-20T23:20:04.696Z,8.33
2019-02-20T23:22:33.345Z,8.40
2019-02-20T23:25:01.943Z,7.95
2019-02-20T23:27:30.618Z,9.55
2019-02-20T23:29:59.246Z,7.83
2019-02-20T23:32:27.876Z,7.80
2019-02-20T23:34:56.501Z,8.88
2019-02-20T23:37:25.106Z,7.50
2019-02-20T23:39:53.708Z,8.58
2019-02-20T23:42:22.308Z,8.00
2019-02-20T23:44:50.921Z,9.03
2019-02-20T23:47:19.540Z,7.97
2019-02-20T23:49:48.157Z,7.62
2019-02-20T23:52:16.761Z,6.90
2019-02-20T23:54:45.380Z,8.53
2019-02-20T23:57:13.992Z,7.62
2019-02-20T23:59:42.611Z,8.10
